sensor_id;sensor_type;location;lat;lon;timestamp;temperature;humidity
13488;DHT22;6816;48.506;9.050;2022-07-30T00:01:02;19.60;91.10
13488;DHT22;6816;48.506;9.050;2022-07-30T00:04:03;19.50;91.20
13488;DHT22;6816;48.506;9.050;2022-07-30T00:07:04;19.50;91.20
13488;DHT22;6816;48.506;9.050;2022-07-30T00:10:06;19.50;91.30
13488;DHT22;6816;48.506;9.050;2022-07-30T00:13:06;19.40;91.30
13488;DHT22;6816;48.506;9.050;2022-07-30T00:16:09;19.40;91.40
13488;DHT22;6816;48.506;9.050;2022-07-30T00:19:11;19.30;91.50
13488;DHT22;6816;48.506;9.050;2022-07-30T00:22:15;19.30;91.60
13488;DHT22;6816;48.506;9.050;2022-07-30T00:25:17;19.30;91.70
13488;DHT22;6816;48.506;9.050;2022-07-30T00:28:20;19.20;91.80
13488;DHT22;6816;48.506;9.050;2022-07-30T00:31:23;19.20;92.30
13488;DHT22;6816;48.506;9.050;2022-07-30T00:34:24;19.20;92.00
13488;DHT22;6816;48.506;9.050;2022-07-30T00:37:26;19.20;92.20
13488;DHT22;6816;48.506;9.050;2022-07-30T00:40:27;19.20;92.20
13488;DHT22;6816;48.506;9.050;2022-07-30T00:43:28;19.20;92.40
13488;DHT22;6816;48.506;9.050;2022-07-30T00:46:28;19.20;92.50
13488;DHT22;6816;48.506;9.050;2022-07-30T00:49:29;19.20;92.60
13488;DHT22;6816;48.506;9.050;2022-07-30T00:52:32;19.20;92.70
13488;DHT22;6816;48.506;9.050;2022-07-30T00:55:33;19.20;92.70
13488;DHT22;6816;48.506;9.050;2022-07-30T00:58:34;19.20;92.70
13488;DHT22;6816;48.506;9.050;2022-07-30T01:01:35;19.20;92.80
13488;DHT22;6816;48.506;9.050;2022-07-30T01:04:36;19.20;92.90
13488;DHT22;6816;48.506;9.050;2022-07-30T01:07:37;19.20;92.90
13488;DHT22;6816;48.506;9.050;2022-07-30T01:10:38;19.20;92.90
13488;DHT22;6816;48.506;9.050;2022-07-30T01:13:39;19.20;93.00
13488;DHT22;6816;48.506;9.050;2022-07-30T01:16:41;19.20;93.00
13488;DHT22;6816;48.506;9.050;2022-07-30T01:19:43;19.20;93.00
13488;DHT22;6816;48.506;9.050;2022-07-30T01:26:17;19.20;92.60
13488;DHT22;6816;48.506;9.050;2022-07-30T01:29:19;19.20;93.10
13488;DHT22;6816;48.506;9.050;2022-07-30T01:32:22;19.20;93.20
13488;DHT22;6816;48.506;9.050;2022-07-30T01:35:27;19.20;93.20
13488;DHT22;6816;48.506;9.050;2022-07-30T01:38:30;19.20;93.20
13488;DHT22;6816;48.506;9.050;2022-07-30T01:41:31;19.20;93.20
13488;DHT22;6816;48.506;9.050;2022-07-30T01:44:32;19.10;93.20
13488;DHT22;6816;48.506;9.050;2022-07-30T01:47:36;19.10;93.60
13488;DHT22;6816;48.506;9.050;2022-07-30T01:50:42;19.10;93.30
13488;DHT22;6816;48.506;9.050;2022-07-30T01:53:43;19.10;93.20
13488;DHT22;6816;48.506;9.050;2022-07-30T01:56:46;19.10;93.40
13488;DHT22;6816;48.506;9.050;2022-07-30T01:59:50;19.10;93.40
13488;DHT22;6816;48.506;9.050;2022-07-30T02:02:51;19.10;93.50
13488;DHT22;6816;48.506;9.050;2022-07-30T02:06:00;19.10;93.60
13488;DHT22;6816;48.506;9.050;2022-07-30T02:09:05;19.10;93.30
13488;DHT22;6816;48.506;9.050;2022-07-30T02:12:08;19.10;93.40
13488;DHT22;6816;48.506;9.050;2022-07-30T02:15:35;19.10;93.50
13488;DHT22;6816;48.506;9.050;2022-07-30T02:18:46;19.00;93.30
13488;DHT22;6816;48.506;9.050;2022-07-30T02:21:54;19.00;93.30
13488;DHT22;6816;48.506;9.050;2022-07-30T02:24:58;19.00;93.40
13488;DHT22;6816;48.506;9.050;2022-07-30T02:28:05;18.90;93.50
13488;DHT22;6816;48.506;9.050;2022-07-30T02:31:09;18.90;93.50
13488;DHT22;6816;48.506;9.050;2022-07-30T02:34:12;18.90;93.70
13488;DHT22;6816;48.506;9.050;2022-07-30T02:37:14;18.80;93.60
13488;DHT22;6816;48.506;9.050;2022-07-30T02:40:17;18.80;93.70
13488;DHT22;6816;48.506;9.050;2022-07-30T02:43:17;18.70;93.60
13488;DHT22;6816;48.506;9.050;2022-07-30T02:46:22;18.70;93.60
13488;DHT22;6816;48.506;9.050;2022-07-30T02:49:24;18.60;93.50
13488;DHT22;6816;48.506;9.050;2022-07-30T02:52:26;18.60;93.60
13488;DHT22;6816;48.506;9.050;2022-07-30T02:55:30;18.50;93.70
13488;DHT22;6816;48.506;9.050;2022-07-30T02:58:31;18.50;93.80
13488;DHT22;6816;48.506;9.050;2022-07-30T03:01:34;18.40;93.90
13488;DHT22;6816;48.506;9.050;2022-07-30T03:04:35;18.40;94.00
13488;DHT22;6816;48.506;9.050;2022-07-30T03:07:38;18.30;93.90
13488;DHT22;6816;48.506;9.050;2022-07-30T03:10:41;18.30;93.90
13488;DHT22;6816;48.506;9.050;2022-07-30T03:13:44;18.20;93.90
13488;DHT22;6816;48.506;9.050;2022-07-30T03:16:50;18.20;94.00
13488;DHT22;6816;48.506;9.050;2022-07-30T03:19:53;18.10;94.00
13488;DHT22;6816;48.506;9.050;2022-07-30T03:22:57;18.10;94.10
13488;DHT22;6816;48.506;9.050;2022-07-30T03:26:00;18.10;94.10
13488;DHT22;6816;48.506;9.050;2022-07-30T03:29:01;18.00;94.20
13488;DHT22;6816;48.506;9.050;2022-07-30T03:32:03;18.00;94.40
13488;DHT22;6816;48.506;9.050;2022-07-30T03:35:07;17.90;94.40
13488;DHT22;6816;48.506;9.050;2022-07-30T03:38:12;17.90;94.50
13488;DHT22;6816;48.506;9.050;2022-07-30T03:41:13;17.80;94.50
13488;DHT22;6816;48.506;9.050;2022-07-30T03:44:15;17.80;94.70
13488;DHT22;6816;48.506;9.050;2022-07-30T03:47:16;17.80;94.80
13488;DHT22;6816;48.506;9.050;2022-07-30T03:50:18;17.70;94.90
13488;DHT22;6816;48.506;9.050;2022-07-30T03:53:19;17.70;95.00
13488;DHT22;6816;48.506;9.050;2022-07-30T03:56:23;17.70;95.10
13488;DHT22;6816;48.506;9.050;2022-07-30T03:59:24;17.70;95.30
13488;DHT22;6816;48.506;9.050;2022-07-30T04:02:24;17.60;95.30
13488;DHT22;6816;48.506;9.050;2022-07-30T04:05:25;17.60;95.40
13488;DHT22;6816;48.506;9.050;2022-07-30T04:08:29;17.60;95.40
13488;DHT22;6816;48.506;9.050;2022-07-30T04:11:30;17.60;95.30
13488;DHT22;6816;48.506;9.050;2022-07-30T04:14:41;17.60;95.40
13488;DHT22;6816;48.506;9.050;2022-07-30T04:17:46;17.60;95.10
13488;DHT22;6816;48.506;9.050;2022-07-30T04:20:50;17.50;95.30
13488;DHT22;6816;48.506;9.050;2022-07-30T04:23:51;17.50;95.40
13488;DHT22;6816;48.506;9.050;2022-07-30T04:26:52;17.50;95.80
13488;DHT22;6816;48.506;9.050;2022-07-30T04:29:54;17.40;95.50
13488;DHT22;6816;48.506;9.050;2022-07-30T04:32:55;17.40;95.50
13488;DHT22;6816;48.506;9.050;2022-07-30T04:35:55;17.40;95.60
13488;DHT22;6816;48.506;9.050;2022-07-30T04:38:57;17.40;95.70
13488;DHT22;6816;48.506;9.050;2022-07-30T04:41:58;17.40;95.90
13488;DHT22;6816;48.506;9.050;2022-07-30T04:44:58;17.30;96.00
13488;DHT22;6816;48.506;9.050;2022-07-30T04:47:59;17.40;96.20
13488;DHT22;6816;48.506;9.050;2022-07-30T04:51:01;17.40;96.40
13488;DHT22;6816;48.506;9.050;2022-07-30T04:54:07;17.40;96.50
13488;DHT22;6816;48.506;9.050;2022-07-30T04:57:10;17.40;96.60
13488;DHT22;6816;48.506;9.050;2022-07-30T05:00:12;17.40;96.70
13488;DHT22;6816;48.506;9.050;2022-07-30T05:03:14;17.50;96.80
13488;DHT22;6816;48.506;9.050;2022-07-30T05:06:16;17.50;96.80
13488;DHT22;6816;48.506;9.050;2022-07-30T05:09:17;17.50;97.00
13488;DHT22;6816;48.506;9.050;2022-07-30T05:12:18;17.50;97.10
13488;DHT22;6816;48.506;9.050;2022-07-30T05:15:18;17.60;97.30
13488;DHT22;6816;48.506;9.050;2022-07-30T05:18:19;17.60;97.60
13488;DHT22;6816;48.506;9.050;2022-07-30T05:21:20;17.70;97.90
13488;DHT22;6816;48.506;9.050;2022-07-30T05:24:20;17.80;98.20
13488;DHT22;6816;48.506;9.050;2022-07-30T05:27:21;18.00;98.50
13488;DHT22;6816;48.506;9.050;2022-07-30T05:30:22;18.20;98.80
13488;DHT22;6816;48.506;9.050;2022-07-30T05:33:23;18.40;98.90
13488;DHT22;6816;48.506;9.050;2022-07-30T05:36:24;18.60;99.10
13488;DHT22;6816;48.506;9.050;2022-07-30T05:39:25;18.80;99.10
13488;DHT22;6816;48.506;9.050;2022-07-30T05:42:25;19.10;99.20
13488;DHT22;6816;48.506;9.050;2022-07-30T05:45:26;19.30;99.10
13488;DHT22;6816;48.506;9.050;2022-07-30T05:48:27;19.50;98.90
13488;DHT22;6816;48.506;9.050;2022-07-30T05:51:27;19.80;98.70
13488;DHT22;6816;48.506;9.050;2022-07-30T05:54:28;20.00;98.30
13488;DHT22;6816;48.506;9.050;2022-07-30T05:57:29;20.20;98.00
13488;DHT22;6816;48.506;9.050;2022-07-30T06:00:30;20.50;97.70
13488;DHT22;6816;48.506;9.050;2022-07-30T06:03:30;20.60;97.50
13488;DHT22;6816;48.506;9.050;2022-07-30T06:06:31;20.90;97.30
13488;DHT22;6816;48.506;9.050;2022-07-30T06:09:32;21.00;97.00
13488;DHT22;6816;48.506;9.050;2022-07-30T06:12:32;21.20;96.40
13488;DHT22;6816;48.506;9.050;2022-07-30T06:15:33;21.40;96.00
13488;DHT22;6816;48.506;9.050;2022-07-30T06:18:34;21.60;95.80
13488;DHT22;6816;48.506;9.050;2022-07-30T06:21:34;21.70;95.40
13488;DHT22;6816;48.506;9.050;2022-07-30T06:24:35;21.90;95.40
13488;DHT22;6816;48.506;9.050;2022-07-30T06:27:36;22.10;95.10
13488;DHT22;6816;48.506;9.050;2022-07-30T06:30:37;22.20;95.10
13488;DHT22;6816;48.506;9.050;2022-07-30T06:33:38;22.40;94.40
13488;DHT22;6816;48.506;9.050;2022-07-30T06:36:39;22.50;94.20
13488;DHT22;6816;48.506;9.050;2022-07-30T06:39:40;22.70;94.00
13488;DHT22;6816;48.506;9.050;2022-07-30T06:42:40;22.80;93.60
13488;DHT22;6816;48.506;9.050;2022-07-30T06:45:41;22.90;93.20
13488;DHT22;6816;48.506;9.050;2022-07-30T06:48:42;23.00;93.20
13488;DHT22;6816;48.506;9.050;2022-07-30T06:51:43;23.20;92.90
13488;DHT22;6816;48.506;9.050;2022-07-30T06:54:45;23.30;92.80
13488;DHT22;6816;48.506;9.050;2022-07-30T06:57:47;23.40;92.50
13488;DHT22;6816;48.506;9.050;2022-07-30T07:00:48;23.60;92.00
13488;DHT22;6816;48.506;9.050;2022-07-30T07:03:49;23.70;91.80
13488;DHT22;6816;48.506;9.050;2022-07-30T07:06:49;23.80;91.70
13488;DHT22;6816;48.506;9.050;2022-07-30T07:09:50;24.00;91.60
13488;DHT22;6816;48.506;9.050;2022-07-30T07:12:50;24.10;91.20
13488;DHT22;6816;48.506;9.050;2022-07-30T07:15:51;24.20;90.90
13488;DHT22;6816;48.506;9.050;2022-07-30T07:18:52;24.40;90.70
13488;DHT22;6816;48.506;9.050;2022-07-30T07:21:53;24.50;90.30
13488;DHT22;6816;48.506;9.050;2022-07-30T07:24:54;24.60;90.10
13488;DHT22;6816;48.506;9.050;2022-07-30T07:27:55;24.70;90.00
13488;DHT22;6816;48.506;9.050;2022-07-30T07:30:55;24.80;89.60
13488;DHT22;6816;48.506;9.050;2022-07-30T07:33:56;24.90;89.40
13488;DHT22;6816;48.506;9.050;2022-07-30T07:36:56;25.00;89.00
13488;DHT22;6816;48.506;9.050;2022-07-30T07:39:57;25.10;88.40
13488;DHT22;6816;48.506;9.050;2022-07-30T07:42:58;25.20;87.40
13488;DHT22;6816;48.506;9.050;2022-07-30T07:45:58;25.30;86.90
13488;DHT22;6816;48.506;9.050;2022-07-30T07:48:59;25.30;86.40
13488;DHT22;6816;48.506;9.050;2022-07-30T07:52:00;25.40;85.80
13488;DHT22;6816;48.506;9.050;2022-07-30T07:55:00;25.50;85.40
13488;DHT22;6816;48.506;9.050;2022-07-30T07:58:01;25.60;85.40
13488;DHT22;6816;48.506;9.050;2022-07-30T08:01:02;25.70;84.90
13488;DHT22;6816;48.506;9.050;2022-07-30T08:04:03;25.80;84.00
13488;DHT22;6816;48.506;9.050;2022-07-30T08:07:04;25.80;83.70
13488;DHT22;6816;48.506;9.050;2022-07-30T08:10:05;25.90;82.60
13488;DHT22;6816;48.506;9.050;2022-07-30T08:13:06;26.00;82.70
13488;DHT22;6816;48.506;9.050;2022-07-30T08:16:07;26.00;81.30
13488;DHT22;6816;48.506;9.050;2022-07-30T08:19:09;26.20;80.50
13488;DHT22;6816;48.506;9.050;2022-07-30T08:22:11;26.30;80.10
13488;DHT22;6816;48.506;9.050;2022-07-30T08:25:12;26.30;78.70
13488;DHT22;6816;48.506;9.050;2022-07-30T08:28:13;26.40;78.20
13488;DHT22;6816;48.506;9.050;2022-07-30T08:31:13;26.50;77.30
13488;DHT22;6816;48.506;9.050;2022-07-30T08:34:14;26.60;76.50
13488;DHT22;6816;48.506;9.050;2022-07-30T08:37:15;26.60;76.20
13488;DHT22;6816;48.506;9.050;2022-07-30T08:40:18;26.70;75.50
13488;DHT22;6816;48.506;9.050;2022-07-30T08:43:19;26.80;74.40
13488;DHT22;6816;48.506;9.050;2022-07-30T08:46:23;26.90;75.10
13488;DHT22;6816;48.506;9.050;2022-07-30T08:49:24;27.00;73.60
13488;DHT22;6816;48.506;9.050;2022-07-30T08:52:25;27.10;75.40
13488;DHT22;6816;48.506;9.050;2022-07-30T08:55:26;27.30;75.50
13488;DHT22;6816;48.506;9.050;2022-07-30T08:58:32;27.40;74.70
13488;DHT22;6816;48.506;9.050;2022-07-30T09:01:36;27.60;73.50
13488;DHT22;6816;48.506;9.050;2022-07-30T09:04:36;27.70;73.80
13488;DHT22;6816;48.506;9.050;2022-07-30T09:07:37;27.80;72.60
13488;DHT22;6816;48.506;9.050;2022-07-30T09:10:38;27.90;71.50
13488;DHT22;6816;48.506;9.050;2022-07-30T09:13:41;28.00;70.70
13488;DHT22;6816;48.506;9.050;2022-07-30T09:16:43;28.00;69.30
13488;DHT22;6816;48.506;9.050;2022-07-30T09:20:01;28.00;68.30
13488;DHT22;6816;48.506;9.050;2022-07-30T09:23:04;28.00;64.80
13488;DHT22;6816;48.506;9.050;2022-07-30T09:26:05;28.00;68.20
13488;DHT22;6816;48.506;9.050;2022-07-30T09:29:17;28.00;69.10
13488;DHT22;6816;48.506;9.050;2022-07-30T09:32:18;28.10;64.20
13488;DHT22;6816;48.506;9.050;2022-07-30T09:35:20;28.10;68.30
13488;DHT22;6816;48.506;9.050;2022-07-30T09:38:21;28.20;68.60
13488;DHT22;6816;48.506;9.050;2022-07-30T09:41:33;28.30;68.30
13488;DHT22;6816;48.506;9.050;2022-07-30T09:44:38;28.40;63.50
13488;DHT22;6816;48.506;9.050;2022-07-30T09:47:41;28.40;67.30
13488;DHT22;6816;48.506;9.050;2022-07-30T09:50:47;28.50;66.20
13488;DHT22;6816;48.506;9.050;2022-07-30T09:53:56;28.60;64.80
13488;DHT22;6816;48.506;9.050;2022-07-30T09:57:07;28.70;63.40
13488;DHT22;6816;48.506;9.050;2022-07-30T10:00:17;28.60;61.80
13488;DHT22;6816;48.506;9.050;2022-07-30T10:03:19;28.60;61.60
13488;DHT22;6816;48.506;9.050;2022-07-30T10:06:34;28.60;66.20
13488;DHT22;6816;48.506;9.050;2022-07-30T10:09:35;28.70;62.40
13488;DHT22;6816;48.506;9.050;2022-07-30T10:12:36;28.80;66.20
13488;DHT22;6816;48.506;9.050;2022-07-30T10:15:37;28.80;65.80
13488;DHT22;6816;48.506;9.050;2022-07-30T10:18:41;28.90;64.80
13488;DHT22;6816;48.506;9.050;2022-07-30T10:21:43;28.90;63.30
13488;DHT22;6816;48.506;9.050;2022-07-30T10:24:44;28.90;63.90
13488;DHT22;6816;48.506;9.050;2022-07-30T10:27:46;28.90;63.70
13488;DHT22;6816;48.506;9.050;2022-07-30T10:30:54;29.00;63.60
13488;DHT22;6816;48.506;9.050;2022-07-30T10:33:56;29.00;60.70
13488;DHT22;6816;48.506;9.050;2022-07-30T10:37:00;29.10;62.60
13488;DHT22;6816;48.506;9.050;2022-07-30T10:40:26;29.00;61.40
13488;DHT22;6816;48.506;9.050;2022-07-30T10:43:45;29.10;58.10
13488;DHT22;6816;48.506;9.050;2022-07-30T10:47:07;29.10;59.10
13488;DHT22;6816;48.506;9.050;2022-07-30T10:50:14;29.20;58.90
13488;DHT22;6816;48.506;9.050;2022-07-30T10:56:32;29.30;57.80
13488;DHT22;6816;48.506;9.050;2022-07-30T11:03:23;29.30;57.30
13488;DHT22;6816;48.506;9.050;2022-07-30T11:06:25;29.30;57.90
13488;DHT22;6816;48.506;9.050;2022-07-30T11:09:40;29.20;62.00
13488;DHT22;6816;48.506;9.050;2022-07-30T11:15:57;29.10;63.00
13488;DHT22;6816;48.506;9.050;2022-07-30T11:19:08;29.10;57.70
13488;DHT22;6816;48.506;9.050;2022-07-30T11:22:37;29.10;58.80
13488;DHT22;6816;48.506;9.050;2022-07-30T11:25:40;29.10;57.40
13488;DHT22;6816;48.506;9.050;2022-07-30T11:28:44;29.10;62.20
13488;DHT22;6816;48.506;9.050;2022-07-30T11:31:45;29.10;60.40
13488;DHT22;6816;48.506;9.050;2022-07-30T11:34:46;29.10;60.50
13488;DHT22;6816;48.506;9.050;2022-07-30T11:41:08;29.20;56.80
13488;DHT22;6816;48.506;9.050;2022-07-30T11:44:29;29.30;60.90
13488;DHT22;6816;48.506;9.050;2022-07-30T11:47:30;29.30;57.60
13488;DHT22;6816;48.506;9.050;2022-07-30T11:50:34;29.40;60.50
13488;DHT22;6816;48.506;9.050;2022-07-30T11:53:35;29.40;59.30
13488;DHT22;6816;48.506;9.050;2022-07-30T11:56:46;29.50;60.40
13488;DHT22;6816;48.506;9.050;2022-07-30T11:59:54;29.50;59.50
13488;DHT22;6816;48.506;9.050;2022-07-30T12:02:55;29.40;57.10
13488;DHT22;6816;48.506;9.050;2022-07-30T12:06:03;29.50;59.30
13488;DHT22;6816;48.506;9.050;2022-07-30T12:09:04;29.40;57.80
13488;DHT22;6816;48.506;9.050;2022-07-30T12:12:23;29.40;59.50
13488;DHT22;6816;48.506;9.050;2022-07-30T12:15:32;29.40;55.20
13488;DHT22;6816;48.506;9.050;2022-07-30T12:18:33;29.40;57.20
13488;DHT22;6816;48.506;9.050;2022-07-30T12:21:33;29.40;59.10
13488;DHT22;6816;48.506;9.050;2022-07-30T12:24:34;29.40;59.20
13488;DHT22;6816;48.506;9.050;2022-07-30T12:27:35;29.50;59.00
13488;DHT22;6816;48.506;9.050;2022-07-30T12:30:37;29.60;58.90
13488;DHT22;6816;48.506;9.050;2022-07-30T12:33:38;29.70;58.90
13488;DHT22;6816;48.506;9.050;2022-07-30T12:36:39;29.80;58.80
13488;DHT22;6816;48.506;9.050;2022-07-30T12:39:40;30.00;58.70
13488;DHT22;6816;48.506;9.050;2022-07-30T12:42:53;30.10;58.10
13488;DHT22;6816;48.506;9.050;2022-07-30T12:45:57;30.20;53.60
13488;DHT22;6816;48.506;9.050;2022-07-30T12:49:02;30.30;57.30
13488;DHT22;6816;48.506;9.050;2022-07-30T12:52:03;30.40;57.50
13488;DHT22;6816;48.506;9.050;2022-07-30T12:55:05;30.50;57.30
13488;DHT22;6816;48.506;9.050;2022-07-30T12:58:06;30.60;57.00
13488;DHT22;6816;48.506;9.050;2022-07-30T13:01:08;30.50;56.70
13488;DHT22;6816;48.506;9.050;2022-07-30T13:04:09;30.50;56.20
13488;DHT22;6816;48.506;9.050;2022-07-30T13:07:11;30.50;56.20
13488;DHT22;6816;48.506;9.050;2022-07-30T13:10:12;30.50;55.90
13488;DHT22;6816;48.506;9.050;2022-07-30T13:13:14;30.40;55.70
13488;DHT22;6816;48.506;9.050;2022-07-30T13:16:15;30.40;56.30
13488;DHT22;6816;48.506;9.050;2022-07-30T13:19:16;30.30;56.30
13488;DHT22;6816;48.506;9.050;2022-07-30T13:22:16;30.30;56.30
13488;DHT22;6816;48.506;9.050;2022-07-30T13:25:17;30.10;56.20
13488;DHT22;6816;48.506;9.050;2022-07-30T13:28:18;30.10;56.40
13488;DHT22;6816;48.506;9.050;2022-07-30T13:31:21;30.00;56.20
13488;DHT22;6816;48.506;9.050;2022-07-30T13:34:22;30.10;55.60
13488;DHT22;6816;48.506;9.050;2022-07-30T13:37:22;30.00;56.30
13488;DHT22;6816;48.506;9.050;2022-07-30T13:40:23;30.00;56.90
13488;DHT22;6816;48.506;9.050;2022-07-30T13:43:24;30.00;56.80
13488;DHT22;6816;48.506;9.050;2022-07-30T13:46:24;30.10;56.30
13488;DHT22;6816;48.506;9.050;2022-07-30T13:49:25;30.20;56.50
13488;DHT22;6816;48.506;9.050;2022-07-30T13:52:26;30.20;56.40
13488;DHT22;6816;48.506;9.050;2022-07-30T13:55:26;30.10;55.90
13488;DHT22;6816;48.506;9.050;2022-07-30T13:58:27;30.10;55.60
13488;DHT22;6816;48.506;9.050;2022-07-30T14:01:28;30.00;55.90
13488;DHT22;6816;48.506;9.050;2022-07-30T14:04:29;30.00;56.00
13488;DHT22;6816;48.506;9.050;2022-07-30T14:07:30;30.00;56.00
13488;DHT22;6816;48.506;9.050;2022-07-30T14:10:31;30.10;56.00
13488;DHT22;6816;48.506;9.050;2022-07-30T14:13:31;30.10;56.20
13488;DHT22;6816;48.506;9.050;2022-07-30T14:16:32;30.10;56.60
13488;DHT22;6816;48.506;9.050;2022-07-30T14:19:33;30.10;56.50
13488;DHT22;6816;48.506;9.050;2022-07-30T14:22:34;30.00;56.10
13488;DHT22;6816;48.506;9.050;2022-07-30T14:25:34;29.90;55.60
13488;DHT22;6816;48.506;9.050;2022-07-30T14:28:35;29.90;55.90
13488;DHT22;6816;48.506;9.050;2022-07-30T14:31:36;29.80;55.90
13488;DHT22;6816;48.506;9.050;2022-07-30T14:34:37;29.80;55.80
13488;DHT22;6816;48.506;9.050;2022-07-30T14:37:38;29.80;56.10
13488;DHT22;6816;48.506;9.050;2022-07-30T14:40:39;29.90;56.80
13488;DHT22;6816;48.506;9.050;2022-07-30T14:43:40;30.00;57.20
13488;DHT22;6816;48.506;9.050;2022-07-30T14:46:40;30.20;56.50
13488;DHT22;6816;48.506;9.050;2022-07-30T14:49:43;30.30;56.80
13488;DHT22;6816;48.506;9.050;2022-07-30T14:52:45;30.40;55.90
13488;DHT22;6816;48.506;9.050;2022-07-30T14:55:48;30.40;55.90
13488;DHT22;6816;48.506;9.050;2022-07-30T14:58:48;30.40;56.50
13488;DHT22;6816;48.506;9.050;2022-07-30T15:01:49;30.50;56.60
13488;DHT22;6816;48.506;9.050;2022-07-30T15:04:50;30.50;56.20
13488;DHT22;6816;48.506;9.050;2022-07-30T15:07:51;30.60;56.30
13488;DHT22;6816;48.506;9.050;2022-07-30T15:10:51;30.70;56.30
13488;DHT22;6816;48.506;9.050;2022-07-30T15:13:52;30.70;56.30
13488;DHT22;6816;48.506;9.050;2022-07-30T15:16:53;30.80;55.50
13488;DHT22;6816;48.506;9.050;2022-07-30T15:19:53;30.80;55.10
13488;DHT22;6816;48.506;9.050;2022-07-30T15:22:54;30.70;54.90
13488;DHT22;6816;48.506;9.050;2022-07-30T15:25:55;30.70;54.80
13488;DHT22;6816;48.506;9.050;2022-07-30T15:28:55;30.60;54.40
13488;DHT22;6816;48.506;9.050;2022-07-30T15:31:57;30.50;54.60
13488;DHT22;6816;48.506;9.050;2022-07-30T15:34:59;30.60;54.90
13488;DHT22;6816;48.506;9.050;2022-07-30T15:38:00;30.70;55.20
13488;DHT22;6816;48.506;9.050;2022-07-30T15:41:00;30.80;55.40
13488;DHT22;6816;48.506;9.050;2022-07-30T15:44:01;31.00;55.70
13488;DHT22;6816;48.506;9.050;2022-07-30T15:47:02;31.20;55.40
13488;DHT22;6816;48.506;9.050;2022-07-30T15:50:04;31.30;54.30
13488;DHT22;6816;48.506;9.050;2022-07-30T15:53:09;31.30;53.40
13488;DHT22;6816;48.506;9.050;2022-07-30T15:56:10;31.30;52.60
13488;DHT22;6816;48.506;9.050;2022-07-30T15:59:12;31.10;53.20
13488;DHT22;6816;48.506;9.050;2022-07-30T16:02:12;31.00;53.00
13488;DHT22;6816;48.506;9.050;2022-07-30T16:05:13;31.00;53.50
13488;DHT22;6816;48.506;9.050;2022-07-30T16:08:14;31.00;53.70
13488;DHT22;6816;48.506;9.050;2022-07-30T16:11:14;31.00;53.50
13488;DHT22;6816;48.506;9.050;2022-07-30T16:14:16;31.00;53.80
13488;DHT22;6816;48.506;9.050;2022-07-30T16:17:16;30.90;53.70
13488;DHT22;6816;48.506;9.050;2022-07-30T16:20:17;30.80;53.50
13488;DHT22;6816;48.506;9.050;2022-07-30T16:23:18;30.70;53.60
13488;DHT22;6816;48.506;9.050;2022-07-30T16:26:19;30.60;53.50
13488;DHT22;6816;48.506;9.050;2022-07-30T16:29:19;30.50;53.70
13488;DHT22;6816;48.506;9.050;2022-07-30T16:32:20;30.40;53.60
13488;DHT22;6816;48.506;9.050;2022-07-30T16:35:21;30.30;54.20
13488;DHT22;6816;48.506;9.050;2022-07-30T16:38:22;30.20;54.20
13488;DHT22;6816;48.506;9.050;2022-07-30T16:41:22;30.10;54.40
13488;DHT22;6816;48.506;9.050;2022-07-30T16:44:23;30.10;54.80
13488;DHT22;6816;48.506;9.050;2022-07-30T16:47:26;30.00;55.00
13488;DHT22;6816;48.506;9.050;2022-07-30T16:50:26;30.00;54.90
13488;DHT22;6816;48.506;9.050;2022-07-30T16:53:27;30.00;55.10
13488;DHT22;6816;48.506;9.050;2022-07-30T16:56:28;30.00;54.20
13488;DHT22;6816;48.506;9.050;2022-07-30T16:59:29;29.90;54.30
13488;DHT22;6816;48.506;9.050;2022-07-30T17:02:30;29.90;54.40
13488;DHT22;6816;48.506;9.050;2022-07-30T17:05:31;29.90;54.50
13488;DHT22;6816;48.506;9.050;2022-07-30T17:08:31;29.90;54.10
13488;DHT22;6816;48.506;9.050;2022-07-30T17:11:32;29.90;54.30
13488;DHT22;6816;48.506;9.050;2022-07-30T17:14:33;29.90;54.20
13488;DHT22;6816;48.506;9.050;2022-07-30T17:17:33;29.90;53.90
13488;DHT22;6816;48.506;9.050;2022-07-30T17:20:34;30.00;54.00
13488;DHT22;6816;48.506;9.050;2022-07-30T17:23:35;30.00;53.80
13488;DHT22;6816;48.506;9.050;2022-07-30T17:26:36;30.00;53.60
13488;DHT22;6816;48.506;9.050;2022-07-30T17:29:39;30.00;54.10
13488;DHT22;6816;48.506;9.050;2022-07-30T17:32:40;29.90;53.20
13488;DHT22;6816;48.506;9.050;2022-07-30T17:35:41;29.90;53.60
13488;DHT22;6816;48.506;9.050;2022-07-30T17:38:41;29.90;54.10
13488;DHT22;6816;48.506;9.050;2022-07-30T17:41:42;29.80;54.30
13488;DHT22;6816;48.506;9.050;2022-07-30T17:44:43;29.80;54.10
13488;DHT22;6816;48.506;9.050;2022-07-30T17:47:43;29.70;53.70
13488;DHT22;6816;48.506;9.050;2022-07-30T17:50:44;29.70;53.80
13488;DHT22;6816;48.506;9.050;2022-07-30T17:53:45;29.60;54.00
13488;DHT22;6816;48.506;9.050;2022-07-30T17:56:45;29.60;54.30
13488;DHT22;6816;48.506;9.050;2022-07-30T17:59:46;29.60;54.10
13488;DHT22;6816;48.506;9.050;2022-07-30T18:02:46;29.50;54.10
13488;DHT22;6816;48.506;9.050;2022-07-30T18:05:47;29.50;53.90
13488;DHT22;6816;48.506;9.050;2022-07-30T18:08:48;29.40;54.00
13488;DHT22;6816;48.506;9.050;2022-07-30T18:11:49;29.40;54.00
13488;DHT22;6816;48.506;9.050;2022-07-30T18:14:49;29.30;54.20
13488;DHT22;6816;48.506;9.050;2022-07-30T18:17:51;29.30;54.00
13488;DHT22;6816;48.506;9.050;2022-07-30T18:20:51;29.20;54.10
13488;DHT22;6816;48.506;9.050;2022-07-30T18:23:52;29.10;54.00
13488;DHT22;6816;48.506;9.050;2022-07-30T18:26:53;29.00;53.90
13488;DHT22;6816;48.506;9.050;2022-07-30T18:29:53;28.90;54.10
13488;DHT22;6816;48.506;9.050;2022-07-30T18:32:54;28.80;54.10
13488;DHT22;6816;48.506;9.050;2022-07-30T18:35:55;28.70;53.90
13488;DHT22;6816;48.506;9.050;2022-07-30T18:38:55;28.60;54.10
13488;DHT22;6816;48.506;9.050;2022-07-30T18:41:56;28.50;54.30
13488;DHT22;6816;48.506;9.050;2022-07-30T18:44:57;28.40;54.40
13488;DHT22;6816;48.506;9.050;2022-07-30T18:47:58;28.30;54.50
13488;DHT22;6816;48.506;9.050;2022-07-30T18:50:59;28.20;54.70
13488;DHT22;6816;48.506;9.050;2022-07-30T18:54:00;28.10;54.80
13488;DHT22;6816;48.506;9.050;2022-07-30T18:57:01;28.00;55.00
13488;DHT22;6816;48.506;9.050;2022-07-30T19:00:06;27.80;55.00
13488;DHT22;6816;48.506;9.050;2022-07-30T19:03:10;27.70;55.10
13488;DHT22;6816;48.506;9.050;2022-07-30T19:06:10;27.50;55.00
13488;DHT22;6816;48.506;9.050;2022-07-30T19:09:11;27.40;55.50
13488;DHT22;6816;48.506;9.050;2022-07-30T19:12:12;27.20;55.70
13488;DHT22;6816;48.506;9.050;2022-07-30T19:15:12;27.10;55.90
13488;DHT22;6816;48.506;9.050;2022-07-30T19:18:13;27.00;56.10
13488;DHT22;6816;48.506;9.050;2022-07-30T19:21:14;26.80;56.30
13488;DHT22;6816;48.506;9.050;2022-07-30T19:24:14;26.70;56.60
13488;DHT22;6816;48.506;9.050;2022-07-30T19:27:15;26.50;56.90
13488;DHT22;6816;48.506;9.050;2022-07-30T19:30:16;26.40;57.40
13488;DHT22;6816;48.506;9.050;2022-07-30T19:33:16;26.20;58.00
13488;DHT22;6816;48.506;9.050;2022-07-30T19:36:17;26.10;58.40
13488;DHT22;6816;48.506;9.050;2022-07-30T19:39:20;26.00;58.70
13488;DHT22;6816;48.506;9.050;2022-07-30T19:42:21;25.80;59.10
13488;DHT22;6816;48.506;9.050;2022-07-30T19:45:21;25.70;59.30